sensor_id;sensor_type;location;lat;lon;timestamp;pressure;altitude;pressure_sealevel;temperature;humidity
84413;BME280;74611;53.106;8.778;2024-01-15T14:40:40;99843.47;;;1.08;93.46
84413;BME280;74611;53.106;8.778;2024-01-15T14:43:08;99849.44;;;1.10;93.86
84413;BME280;74611;53.106;8.778;2024-01-15T14:45:34;99858.72;;;1.14;93.95
84413;BME280;74611;53.106;8.778;2024-01-15T14:47:59;99862.31;;;1.13;94.52
84413;BME280;74611;53.106;8.778;2024-01-15T14:50:25;99871.41;;;1.11;94.14
84413;BME280;74611;53.106;8.778;2024-01-15T14:52:50;99879.59;;;1.08;93.66
84413;BME280;74611;53.106;8.778;2024-01-15T14:55:16;99888.34;;;1.08;93.89
84413;BME280;74611;53.106;8.778;2024-01-15T14:57:42;99890.84;;;1.10;93.82
84413;BME280;74611;53.106;8.778;2024-01-15T15:00:07;99893.63;;;1.08;93.73
84413;BME280;74611;53.106;8.778;2024-01-15T15:02:35;99897.53;;;1.04;93.88
84413;BME280;74611;53.106;8.778;2024-01-15T15:05:02;99900.03;;;1.06;93.55
84413;BME280;74611;53.106;8.778;2024-01-15T15:07:28;99900.44;;;1.11;94.24
84413;BME280;74611;53.106;8.778;2024-01-15T15:09:54;99905.16;;;1.07;94.38
84413;BME280;74611;53.106;8.778;2024-01-15T15:12:22;99911.56;;;1.05;93.83
84413;BME280;74611;53.106;8.778;2024-01-15T15:14:48;99909.66;;;0.97;93.73
84413;BME280;74611;53.106;8.778;2024-01-15T15:17:14;99917.81;;;1.04;94.33
84413;BME280;74611;53.106;8.778;2024-01-15T15:19:39;99924.66;;;0.97;94.20
84413;BME280;74611;53.106;8.778;2024-01-15T15:22:06;99929.66;;;1.00;94.02
84413;BME280;74611;53.106;8.778;2024-01-15T15:24:36;99942.84;;;1.00;94.46
84413;BME280;74611;53.106;8.778;2024-01-15T15:27:02;99934.94;;;1.00;94.17
84413;BME280;74611;53.106;8.778;2024-01-15T15:29:28;99944.25;;;0.94;94.18
84413;BME280;74611;53.106;8.778;2024-01-15T15:31:54;99944.41;;;0.93;94.54
84413;BME280;74611;53.106;8.778;2024-01-15T15:34:20;99942.59;;;0.93;94.00
84413;BME280;74611;53.106;8.778;2024-01-15T15:36:45;99947.31;;;0.90;94.70
84413;BME280;74611;53.106;8.778;2024-01-15T15:39:11;99952.31;;;0.93;94.78
84413;BME280;74611;53.106;8.778;2024-01-15T15:41:41;99960.38;;;0.91;94.42
84413;BME280;74611;53.106;8.778;2024-01-15T15:44:06;99967.03;;;0.95;94.51
84413;BME280;74611;53.106;8.778;2024-01-15T15:46:32;99964.56;;;0.84;94.05
84413;BME280;74611;53.106;8.778;2024-01-15T15:48:58;99966.63;;;0.90;94.04
84413;BME280;74611;53.106;8.778;2024-01-15T15:51:23;99977.59;;;0.86;94.68
84413;BME280;74611;53.106;8.778;2024-01-15T15:53:49;99980.28;;;0.76;94.18
84413;BME280;74611;53.106;8.778;2024-01-15T15:56:14;99969.84;;;0.84;94.41
84413;BME280;74611;53.106;8.778;2024-01-15T15:58:40;99979.97;;;0.89;94.21
84413;BME280;74611;53.106;8.778;2024-01-15T16:01:05;99977.06;;;0.82;94.10
84413;BME280;74611;53.106;8.778;2024-01-15T16:03:31;99987.38;;;0.75;94.62
84413;BME280;74611;53.106;8.778;2024-01-15T16:05:56;99977.75;;;0.84;94.37
84413;BME280;74611;53.106;8.778;2024-01-15T16:08:22;99978.78;;;0.73;94.45
84413;BME280;74611;53.106;8.778;2024-01-15T16:10:48;99985.00;;;0.72;93.71
84413;BME280;74611;53.106;8.778;2024-01-15T16:13:16;99986.94;;;0.70;93.86
84413;BME280;74611;53.106;8.778;2024-01-15T16:15:42;99990.44;;;0.71;94.32
84413;BME280;74611;53.106;8.778;2024-01-15T16:18:07;99987.22;;;0.77;94.39
84413;BME280;74611;53.106;8.778;2024-01-15T16:20:33;99988.47;;;0.73;94.26
84413;BME280;74611;53.106;8.778;2024-01-15T16:22:58;100000.41;;;0.67;94.28
84413;BME280;74611;53.106;8.778;2024-01-15T16:25:24;99996.66;;;0.70;94.15
84413;BME280;74611;53.106;8.778;2024-01-15T16:27:50;100003.19;;;0.75;94.27
84413;BME280;74611;53.106;8.778;2024-01-15T16:30:15;100012.22;;;0.63;93.97
84413;BME280;74611;53.106;8.778;2024-01-15T16:32:42;100004.72;;;0.68;93.82
84413;BME280;74611;53.106;8.778;2024-01-15T16:35:07;100009.16;;;0.68;94.23
84413;BME280;74611;53.106;8.778;2024-01-15T16:37:33;100013.91;;;0.64;94.01
84413;BME280;74611;53.106;8.778;2024-01-15T16:40:01;100011.28;;;0.64;93.94
84413;BME280;74611;53.106;8.778;2024-01-15T16:42:27;100015.56;;;0.65;94.49
84413;BME280;74611;53.106;8.778;2024-01-15T16:44:52;100028.19;;;0.62;93.93
84413;BME280;74611;53.106;8.778;2024-01-15T16:47:18;100017.22;;;0.66;94.52
84413;BME280;74611;53.106;8.778;2024-01-15T16:49:43;100027.38;;;0.61;94.36
84413;BME280;74611;53.106;8.778;2024-01-15T16:52:09;100031.38;;;0.65;94.61
84413;BME280;74611;53.106;8.778;2024-01-15T16:54:35;100029.03;;;0.62;94.57
84413;BME280;74611;53.106;8.778;2024-01-15T16:57:01;100030.41;;;0.66;94.55
84413;BME280;74611;53.106;8.778;2024-01-15T16:59:26;100028.06;;;0.63;94.12
84413;BME280;74611;53.106;8.778;2024-01-15T17:01:53;100035.84;;;0.65;93.96
84413;BME280;74611;53.106;8.778;2024-01-15T17:04:18;100036.25;;;0.60;94.60
84413;BME280;74611;53.106;8.778;2024-01-15T17:06:44;100029.03;;;0.62;94.45
84413;BME280;74611;53.106;8.778;2024-01-15T17:09:09;100039.03;;;0.59;93.77
84413;BME280;74611;53.106;8.778;2024-01-15T17:11:35;100042.22;;;0.53;94.31
84413;BME280;74611;53.106;8.778;2024-01-15T17:14:00;100034.31;;;0.53;93.68
84413;BME280;74611;53.106;8.778;2024-01-15T17:16:26;100026.97;;;0.56;94.17
84413;BME280;74611;53.106;8.778;2024-01-15T17:19:20;100042.81;;;0.56;94.10
84413;BME280;74611;53.106;8.778;2024-01-15T17:21:46;100036.84;;;0.54;93.96
84413;BME280;74611;53.106;8.778;2024-01-15T17:24:12;100046.53;;;0.54;94.29
84413;BME280;74611;53.106;8.778;2024-01-15T17:26:38;100058.06;;;0.53;94.15
84413;BME280;74611;53.106;8.778;2024-01-15T17:29:04;100060.28;;;0.48;93.70
84413;BME280;74611;53.106;8.778;2024-01-15T17:31:30;100058.06;;;0.53;94.02
84413;BME280;74611;53.106;8.778;2024-01-15T17:33:55;100073.03;;;0.52;94.31
84413;BME280;74611;53.106;8.778;2024-01-15T17:36:21;100065.13;;;0.52;94.50
84413;BME280;74611;53.106;8.778;2024-01-15T17:38:47;100071.38;;;0.51;94.32
84413;BME280;74611;53.106;8.778;2024-01-15T17:41:13;100071.25;;;0.53;94.83
84413;BME280;74611;53.106;8.778;2024-01-15T17:43:39;100084.56;;;0.51;94.03
84413;BME280;74611;53.106;8.778;2024-01-15T17:46:05;100086.38;;;0.51;93.70
84413;BME280;74611;53.106;8.778;2024-01-15T17:48:30;100089.59;;;0.54;94.40
84413;BME280;74611;53.106;8.778;2024-01-15T17:51:02;100090.69;;;0.52;93.91
84413;BME280;74611;53.106;8.778;2024-01-15T17:53:28;100099.56;;;0.51;94.16
84413;BME280;74611;53.106;8.778;2024-01-15T17:55:54;100096.22;;;0.49;94.04
84413;BME280;74611;53.106;8.778;2024-01-15T17:58:19;100105.25;;;0.46;94.50
84413;BME280;74611;53.106;8.778;2024-01-15T18:00:45;100098.16;;;0.47;94.16
84413;BME280;74611;53.106;8.778;2024-01-15T18:03:29;100100.81;;;0.47;94.08
84413;BME280;74611;53.106;8.778;2024-01-15T18:05:58;100096.91;;;0.51;93.98
84413;BME280;74611;53.106;8.778;2024-01-15T18:08:24;100087.88;;;0.44;94.56
84413;BME280;74611;53.106;8.778;2024-01-15T18:10:50;100089.31;;;0.48;94.50
84413;BME280;74611;53.106;8.778;2024-01-15T18:13:15;100099.84;;;0.38;93.95
84413;BME280;74611;53.106;8.778;2024-01-15T18:15:42;100101.94;;;0.35;94.30
84413;BME280;74611;53.106;8.778;2024-01-15T18:18:08;100093.03;;;0.45;94.04
84413;BME280;74611;53.106;8.778;2024-01-15T18:20:34;100089.97;;;0.40;94.34
84413;BME280;74611;53.106;8.778;2024-01-15T18:23:01;100098.16;;;0.47;94.58
84413;BME280;74611;53.106;8.778;2024-01-15T18:25:27;100110.81;;;0.43;93.92
84413;BME280;74611;53.106;8.778;2024-01-15T18:27:52;100116.34;;;0.40;94.51
84413;BME280;74611;53.106;8.778;2024-01-15T18:30:18;100117.88;;;0.43;94.46
84413;BME280;74611;53.106;8.778;2024-01-15T18:32:44;100115.50;;;0.40;94.26
84413;BME280;74611;53.106;8.778;2024-01-15T18:35:09;100119.53;;;0.44;93.91
84413;BME280;74611;53.106;8.778;2024-01-15T18:37:35;100116.09;;;0.43;94.38
84413;BME280;74611;53.106;8.778;2024-01-15T18:40:00;100117.72;;;0.44;94.57
84413;BME280;74611;53.106;8.778;2024-01-15T18:42:26;100123.00;;;0.44;94.23
84413;BME280;74611;53.106;8.778;2024-01-15T18:44:53;100116.75;;;0.36;93.80
84413;BME280;74611;53.106;8.778;2024-01-15T18:47:19;100119.25;;;0.37;93.84
84413;BME280;74611;53.106;8.778;2024-01-15T18:49:44;100122.19;;;0.34;94.04
84413;BME280;74611;53.106;8.778;2024-01-15T18:52:10;100130.78;;;0.36;94.33
84413;BME280;74611;53.106;8.778;2024-01-15T18:54:36;100132.56;;;0.36;94.06
84413;BME280;74611;53.106;8.778;2024-01-15T18:57:03;100130.38;;;0.41;94.58
84413;BME280;74611;53.106;8.778;2024-01-15T18:59:29;100132.56;;;0.36;93.98
84413;BME280;74611;53.106;8.778;2024-01-15T19:01:56;100149.09;;;0.38;93.91
84413;BME280;74611;53.106;8.778;2024-01-15T19:04:22;100144.25;;;0.43;93.91
84413;BME280;74611;53.106;8.778;2024-01-15T19:06:47;100146.88;;;0.43;94.07
84413;BME280;74611;53.106;8.778;2024-01-15T19:09:13;100136.47;;;0.41;93.86
84413;BME280;74611;53.106;8.778;2024-01-15T19:11:38;100153.00;;;0.43;94.29
84413;BME280;74611;53.106;8.778;2024-01-15T19:14:05;100138.13;;;0.42;93.88
84413;BME280;74611;53.106;8.778;2024-01-15T19:16:31;100128.56;;;0.41;94.18
84413;BME280;74611;53.106;8.778;2024-01-15T19:18:56;100126.06;;;0.40;93.98
84413;BME280;74611;53.106;8.778;2024-01-15T19:21:35;100135.06;;;0.37;94.27
84413;BME280;74611;53.106;8.778;2024-01-15T19:24:00;100133.41;;;0.36;94.23
84413;BME280;74611;53.106;8.778;2024-01-15T19:26:27;100139.22;;;0.40;94.34
84413;BME280;74611;53.106;8.778;2024-01-15T19:28:54;100148.94;;;0.39;93.71
84413;BME280;74611;53.106;8.778;2024-01-15T19:31:23;100150.75;;;0.39;93.38
84413;BME280;74611;53.106;8.778;2024-01-15T19:33:49;100160.22;;;0.41;93.79
84413;BME280;74611;53.106;8.778;2024-01-15T19:36:22;100158.94;;;0.36;93.80
84413;BME280;74611;53.106;8.778;2024-01-15T19:38:49;100162.13;;;0.39;93.45
84413;BME280;74611;53.106;8.778;2024-01-15T19:41:15;100165.47;;;0.32;92.79
84413;BME280;74611;53.106;8.778;2024-01-15T19:43:40;100169.75;;;0.33;93.09
84413;BME280;74611;53.106;8.778;2024-01-15T19:46:06;100171.28;;;0.35;93.35
84413;BME280;74611;53.106;8.778;2024-01-15T19:48:31;100178.38;;;0.35;93.85
84413;BME280;74611;53.106;8.778;2024-01-15T19:50:57;100188.94;;;0.35;94.02
84413;BME280;74611;53.106;8.778;2024-01-15T19:53:23;100188.19;;;0.33;93.56
84413;BME280;74611;53.106;8.778;2024-01-15T19:55:49;100184.75;;;0.32;93.57
84413;BME280;74611;53.106;8.778;2024-01-15T19:58:14;100187.94;;;0.36;93.58
84413;BME280;74611;53.106;8.778;2024-01-15T20:00:57;100177.81;;;0.31;93.94
84413;BME280;74611;53.106;8.778;2024-01-15T20:03:24;100186.69;;;0.30;94.18
84413;BME280;74611;53.106;8.778;2024-01-15T20:05:50;100197.25;;;0.30;93.49
84413;BME280;74611;53.106;8.778;2024-01-15T20:08:16;100201.09;;;0.26;92.97
84413;BME280;74611;53.106;8.778;2024-01-15T20:10:41;100207.09;;;0.28;93.63
84413;BME280;74611;53.106;8.778;2024-01-15T20:13:07;100204.56;;;0.27;93.30
84413;BME280;74611;53.106;8.778;2024-01-15T20:15:33;100204.41;;;0.19;93.13
84413;BME280;74611;53.106;8.778;2024-01-15T20:18:03;100208.03;;;0.27;93.84
84413;BME280;74611;53.106;8.778;2024-01-15T20:20:29;100208.28;;;0.24;93.55
84413;BME280;74611;53.106;8.778;2024-01-15T20:22:55;100209.84;;;0.27;94.38
84413;BME280;74611;53.106;8.778;2024-01-15T20:25:21;100207.88;;;0.19;92.98
84413;BME280;74611;53.106;8.778;2024-01-15T20:27:47;100210.53;;;0.19;93.83
84413;BME280;74611;53.106;8.778;2024-01-15T20:30:13;100232.56;;;0.18;94.38
84413;BME280;74611;53.106;8.778;2024-01-15T20:32:39;100232.16;;;0.23;93.93
84413;BME280;74611;53.106;8.778;2024-01-15T20:35:05;100243.25;;;0.17;94.25
84413;BME280;74611;53.106;8.778;2024-01-15T20:37:31;100232.84;;;0.15;93.70
84413;BME280;74611;53.106;8.778;2024-01-15T20:39:56;100242.97;;;0.20;94.35
84413;BME280;74611;53.106;8.778;2024-01-15T20:42:24;100259.75;;;0.19;93.53
84413;BME280;74611;53.106;8.778;2024-01-15T20:44:50;100256.44;;;0.17;93.83
84413;BME280;74611;53.106;8.778;2024-01-15T20:47:15;100252.25;;;0.14;94.11
84413;BME280;74611;53.106;8.778;2024-01-15T20:49:41;100268.31;;;0.11;93.54
84413;BME280;74611;53.106;8.778;2024-01-15T20:52:06;100262.47;;;0.08;93.18
84413;BME280;74611;53.106;8.778;2024-01-15T20:54:32;100272.63;;;0.12;93.51
84413;BME280;74611;53.106;8.778;2024-01-15T20:56:57;100287.88;;;0.09;93.54
84413;BME280;74611;53.106;8.778;2024-01-15T20:59:27;100278.16;;;0.09;94.02
84413;BME280;74611;53.106;8.778;2024-01-15T21:01:53;100274.97;;;0.06;93.21
84413;BME280;74611;53.106;8.778;2024-01-15T21:04:18;100281.19;;;0.05;93.76
84413;BME280;74611;53.106;8.778;2024-01-15T21:06:44;100293.41;;;0.06;94.10
84413;BME280;74611;53.106;8.778;2024-01-15T21:09:09;100299.22;;;-0.01;94.04
84413;BME280;74611;53.106;8.778;2024-01-15T21:11:35;100293.09;;;-0.01;93.78
84413;BME280;74611;53.106;8.778;2024-01-15T21:14:00;100300.03;;;0.00;94.20
84413;BME280;74611;53.106;8.778;2024-01-15T21:16:26;100298.22;;;0.00;93.87
84413;BME280;74611;53.106;8.778;2024-01-15T21:18:51;100306.03;;;0.02;93.65
84413;BME280;74611;53.106;8.778;2024-01-15T21:21:17;100310.31;;;0.03;93.81
84413;BME280;74611;53.106;8.778;2024-01-15T21:24:13;100307.53;;;0.05;94.05
84413;BME280;74611;53.106;8.778;2024-01-15T21:26:40;100313.09;;;0.02;94.11
84413;BME280;74611;53.106;8.778;2024-01-15T21:29:07;100319.44;;;-0.01;93.80
84413;BME280;74611;53.106;8.778;2024-01-15T21:31:37;100326.41;;;0.00;94.57
84413;BME280;74611;53.106;8.778;2024-01-15T21:34:04;100326.50;;;-0.02;94.47
84413;BME280;74611;53.106;8.778;2024-01-15T21:36:29;100330.81;;;-0.01;94.27
84413;BME280;74611;53.106;8.778;2024-01-15T21:38:55;100329.16;;;-0.02;94.57
84413;BME280;74611;53.106;8.778;2024-01-15T21:41:20;100330.81;;;-0.01;94.06
84413;BME280;74611;53.106;8.778;2024-01-15T21:43:46;100332.47;;;0.00;94.18
84413;BME280;74611;53.106;8.778;2024-01-15T21:46:12;100336.09;;;-0.01;94.17
84413;BME280;74611;53.106;8.778;2024-01-15T21:48:37;100344.09;;;-0.02;94.64
84413;BME280;74611;53.106;8.778;2024-01-15T21:51:03;100346.50;;;0.01;94.76
84413;BME280;74611;53.106;8.778;2024-01-15T21:53:29;100344.84;;;0.00;94.30
84413;BME280;74611;53.106;8.778;2024-01-15T21:55:55;100353.69;;;-0.01;94.30
84413;BME280;74611;53.106;8.778;2024-01-15T21:58:20;100355.09;;;0.03;93.86
84413;BME280;74611;53.106;8.778;2024-01-15T22:00:46;100365.78;;;0.02;94.26
84413;BME280;74611;53.106;8.778;2024-01-15T22:03:11;100367.56;;;0.01;94.92
84413;BME280;74611;53.106;8.778;2024-01-15T22:05:37;100365.66;;;0.03;94.97
84413;BME280;74611;53.106;8.778;2024-01-15T22:08:03;100374.97;;;0.07;94.18
84413;BME280;74611;53.106;8.778;2024-01-15T22:10:28;100378.69;;;0.05;94.75
84413;BME280;74611;53.106;8.778;2024-01-15T22:12:54;100378.69;;;0.05;94.35
84413;BME280;74611;53.106;8.778;2024-01-15T22:15:20;100384.09;;;0.03;94.18
84413;BME280;74611;53.106;8.778;2024-01-15T22:17:45;100385.63;;;0.06;94.20
84413;BME280;74611;53.106;8.778;2024-01-15T22:20:11;100400.59;;;0.05;94.75
84413;BME280;74611;53.106;8.778;2024-01-15T22:22:37;100400.47;;;0.07;94.52
84413;BME280;74611;53.106;8.778;2024-01-15T22:25:03;100404.78;;;0.08;94.47
84413;BME280;74611;53.106;8.778;2024-01-15T22:27:29;100410.91;;;0.08;94.57
84413;BME280;74611;53.106;8.778;2024-01-15T22:29:54;100416.19;;;0.08;94.40
84413;BME280;74611;53.106;8.778;2024-01-15T22:32:20;100424.19;;;0.07;94.75
84413;BME280;74611;53.106;8.778;2024-01-15T22:34:46;100423.09;;;0.09;94.33
84413;BME280;74611;53.106;8.778;2024-01-15T22:37:13;100430.19;;;0.09;94.51
84413;BME280;74611;53.106;8.778;2024-01-15T22:39:45;100433.78;;;0.08;94.07
84413;BME280;74611;53.106;8.778;2024-01-15T22:42:11;100432.69;;;0.10;93.74
84413;BME280;74611;53.106;8.778;2024-01-15T22:44:36;100436.16;;;0.11;94.31
84413;BME280;74611;53.106;8.778;2024-01-15T22:47:10;100440.59;;;0.10;93.84
84413;BME280;74611;53.106;8.778;2024-01-15T22:49:36;100445.88;;;0.10;93.94
84413;BME280;74611;53.106;8.778;2024-01-15T22:52:05;100450.06;;;0.13;94.16
84413;BME280;74611;53.106;8.778;2024-01-15T22:54:30;100452.00;;;0.11;94.52
84413;BME280;74611;53.106;8.778;2024-01-15T22:56:57;100452.00;;;0.11;94.09
84413;BME280;74611;53.106;8.778;2024-01-15T22:59:22;100456.28;;;0.12;93.50
84413;BME280;74611;53.106;8.778;2024-01-15T23:01:48;100456.41;;;0.10;94.29
84413;BME280;74611;53.106;8.778;2024-01-15T23:04:14;100458.06;;;0.11;93.90
84413;BME280;74611;53.106;8.778;2024-01-15T23:06:40;100471.00;;;0.14;93.98
84413;BME280;74611;53.106;8.778;2024-01-15T23:09:06;100467.41;;;0.15;94.31
84413;BME280;74611;53.106;8.778;2024-01-15T23:11:32;100470.31;;;0.12;93.38
84413;BME280;74611;53.106;8.778;2024-01-15T23:13:58;100480.13;;;0.10;93.83
84413;BME280;74611;53.106;8.778;2024-01-15T23:16:26;100481.69;;;0.13;94.16
84413;BME280;74611;53.106;8.778;2024-01-15T23:18:51;100489.13;;;0.08;93.80
84413;BME280;74611;53.106;8.778;2024-01-15T23:21:17;100487.78;;;0.13;94.64
84413;BME280;74611;53.106;8.778;2024-01-15T23:23:43;100494.72;;;0.14;93.98
84413;BME280;74611;53.106;8.778;2024-01-15T23:26:08;100493.19;;;0.12;94.41
84413;BME280;74611;53.106;8.778;2024-01-15T23:28:34;100486.34;;;0.09;94.97
84413;BME280;74611;53.106;8.778;2024-01-15T23:31:00;100485.28;;;0.12;94.31
84413;BME280;74611;53.106;8.778;2024-01-15T23:33:27;100478.97;;;0.03;94.76
84413;BME280;74611;53.106;8.778;2024-01-15T23:35:52;100481.09;;;0.09;94.05
84413;BME280;74611;53.106;8.778;2024-01-15T23:38:17;100482.56;;;0.02;94.46
84413;BME280;74611;53.106;8.778;2024-01-15T23:40:43;100489.03;;;-0.02;94.49
84413;BME280;74611;53.106;8.778;2024-01-15T23:43:08;100490.47;;;0.02;94.39
84413;BME280;74611;53.106;8.778;2024-01-15T23:45:34;100499.84;;;-0.05;94.50
84413;BME280;74611;53.106;8.778;2024-01-15T23:48:00;100498.75;;;-0.03;93.98
84413;BME280;74611;53.106;8.778;2024-01-15T23:50:25;100504.09;;;0.07;94.07
84413;BME280;74611;53.106;8.778;2024-01-15T23:52:51;100505.78;;;0.08;94.74
84413;BME280;74611;53.106;8.778;2024-01-15T23:55:16;100507.47;;;-0.02;94.06
84413;BME280;74611;53.106;8.778;2024-01-15T23:57:42;100504.38;;;0.04;94.45
